Quesnel Airport
CYQZ : now visible

Airfield :











YOU CAN JOIN US ON...

 
LOGIN :

Register | Disclaimer

   EN    FR    IT 

 









Legend :    VFR   Marginal VFR   IFR   Intensive IFR   Very Intensive IFR
Visi :
Ceiling :
>= 8 km
>= 3000ft
5 to 8 km
1000 to 3000 ft
1500m to 5 km
500 to 1000 ft
800 to 1500m
200 to 500 ft
< 800m
< 200 ft
Symbols :   Thunderstorms  Fog  Heavy snow  Heavy precipitations  Wind > 20 kt






- Airport Elevation : 1789 ft
- IATA code : YQZ


CYQZ - Quesnel

CURRENT METAR :
  • 082200Z AUTO 16003KT 140V230 9SM CLR M01/M06 A2959 RMK SLP050

EXPIRED METARs :
  • 082100Z AUTO 15005KT 140V220 9SM CLR M01/M05 A2959 RMK SLP048
  • 082000Z AUTO VRB02KT 9SM FEW130 M02/M05 A2958 RMK SLP046

TAF TAF CYQZ
Valid from the 08 at 19:00 until the 09 at 06:00 UTC


081840Z 0819/0906 VRB03KT P6SM SCT140
TEMPO 0819/0906 SCT060 BKN140 RMK FCST BASED ON AUTO OBS. NXT FCST BY 090100Z
CZVR FIR / North America



MET'MAP, your aeronautical weather chart ! - Copyright ORBIFLY December 2007 - Disclaimer

ORBIFLY MET'MAP TEAM :

Programming & Development : Alexandra Zaïnal
Concept & original design : Baudouin d'Aumeries
Assistance for programming : Marc-Olivier Méhu
Technical & hardware support : Manuel Goepfert

Contact : metmap@orbifly.com




SOURCES & CREDITS :

   NOAA       Earth
Advisory